Leipsic, Ohio
Current Conditions -  °F | °C
As of 10:53 AM on Wednesday 28 Jan 2015 (Local Time) from KFDY Reporting Station
Haze Haze  
Wind Chill: 14°   Ceiling: Unl
Heat Index: 14°   Visibility: 5mi
Dew Point: 11°   Wind: 3mph
Humidity: 88%   Direction: 170°S
Pressure: 30.37"   Gusts: NA
Location:  41.1°N, 83.98°W
Report Text: KFDY 281553Z AUTO 17003KT 5SM BR CLR M10/M12 A3037 RMK AO2 SLP296 T11001117
Loading
Personal Weather Stations






























Interactive Weather Map New forecast layout! Learn more

10-Day Weather Forecast

Advertisements
Track Severe Weather on mobile